Daisinmaru No.11 — JK5352 — position and weather

sailwx.info

Track history (hours):
 
Tides and Currents Weather Stations Pressure Air Temp Water Temp Dewpoint Dewpoint Depression Visibility Wind Speed Wind Dir Waves Ship Positions

Daisinmaru No.11

Last reported at 2017-Jun-23 07:01 UTC. Time now 2017-Jun-23 07:03 UTC.
Position N 35°29' E 139°43'.

Length 52 m.

MMSI: 431000667.

Date/timePositionNaut miles runAvg speedWind from/ knotsBaromVisibWave heightAir tempDewpointWater temp
2017-Jun-23 07:01N 35°29' E 139°43'0 0.9
2017-Jun-23 06:31N 35°29' E 139°43'0 0.0
2017-Jun-23 06:01N 35°29' E 139°43'0 0.0
2017-Jun-23 05:31N 35°29' E 139°43'0 0.0
2017-Jun-23 05:01N 35°29' E 139°43'0 0.0
2017-Jun-23 04:31N 35°29' E 139°43'0 0.0
2017-Jun-23 04:00N 35°29' E 139°43'0 0.0
2017-Jun-23 03:31N 35°29' E 139°43'0 0.0
2017-Jun-23 03:01N 35°29' E 139°43'3 5.1
2017-Jun-23 02:31N 35°30' E 139°45'5 9.2
2017-Jun-23 02:01N 35°30' E 139°51'5 9.4
2017-Jun-23 01:30N 35°29' E 139°57'4 0.2
2017-Jun-22 03:57N 35°30' E 139°52'4 8.8
2017-Jun-22 03:30N 35°30' E 139°48'4 8.5
2017-Jun-22 03:01N 35°29' E 139°43'0 0.3
2017-Jun-22 02:30N 35°29' E 139°43'0 0.0
2017-Jun-22 02:00N 35°29' E 139°43'0 0.0
2017-Jun-22 01:30N 35°29' E 139°43'0 0.0
2017-Jun-22 01:00N 35°29' E 139°43'0 0.2
2017-Jun-22 00:30N 35°29' E 139°43'4 8.0
2017-Jun-22 00:00N 35°30' E 139°48'4 8.8
2017-Jun-21 23:30N 35°30' E 139°53'4 0.2
2017-Jun-21 04:50N 35°29' E 139°57'3 8.9
2017-Jun-21 04:29N 35°28' E 139°53'4 9.0
2017-Jun-21 04:00N 35°28' E 139°48'4 8.9
2017-Jun-21 03:31N 35°28' E 139°43'1 2.9
2017-Jun-21 03:00N 35°29' E 139°43'0 0.0
2017-Jun-21 02:31N 35°29' E 139°43'0 0.0
2017-Jun-21 02:00N 35°29' E 139°43'0 0.0
2017-Jun-21 01:30N 35°29' E 139°43'0 0.0
2017-Jun-21 01:01N 35°29' E 139°43'2 4.2
2017-Jun-21 00:30N 35°30' E 139°45'5 9.1
2017-Jun-21 00:01N 35°30' E 139°51'5 9.8
2017-Jun-20 23:31N 35°29' E 139°56'2 0.1
2017-Jun-20 02:48N 35°30' E 139°54'3 9.4
2017-Jun-20 02:30N 35°30' E 139°51'5 9.1
2017-Jun-20 02:00N 35°30' E 139°45'2 4.3
2017-Jun-20 01:30N 35°29' E 139°43'0 0.0
2017-Jun-20 01:00N 35°29' E 139°43'0 0.0
2017-Jun-20 00:30N 35°29' E 139°43'0 0.0
2017-Jun-20 00:00N 35°29' E 139°43'0 0.0
2017-Jun-19 23:30N 35°29' E 139°43'3 6.3
2017-Jun-19 23:00N 35°31' E 139°46'4 8.6
2017-Jun-19 22:30N 35°30' E 139°51'3 0.2
2017-Jun-19 07:24N 35°29' E 139°55'4 9.3
2017-Jun-19 07:00N 35°30' E 139°50'5 9.4
2017-Jun-19 06:31N 35°30' E 139°45'2 3.8
2017-Jun-19 06:01N 35°29' E 139°43'0 0.0
2017-Jun-19 05:31N 35°29' E 139°43'0 0.0
2017-Jun-19 05:01N 35°29' E 139°43'0 0.0
2017-Jun-19 04:31N 35°29' E 139°43'0 0.0
2017-Jun-19 04:01N 35°29' E 139°43'0 0.0
2017-Jun-19 03:30N 35°29' E 139°43'0 0.0
2017-Jun-19 03:00N 35°29' E 139°43'1 2.5
2017-Jun-19 02:31N 35°30' E 139°44'4 8.7
2017-Jun-19 02:01N 35°30' E 139°49'5 9.6
2017-Jun-19 01:28N 35°29' E 139°56'2 0.0
2017-Jun-17 03:00N 35°29' E 139°58'5 8.9
2017-Jun-17 02:28N 35°30' E 139°52'4 8.9
2017-Jun-17 02:00N 35°30' E 139°47'4 8.0
2017-Jun-17 01:30N 35°29' E 139°43'0 0.3
2017-Jun-17 01:00N 35°29' E 139°43'0 0.0
2017-Jun-17 00:30N 35°29' E 139°43'0 0.0
2017-Jun-17 00:00N 35°29' E 139°43'0 0.0
2017-Jun-16 23:30N 35°29' E 139°43'0 0.0
2017-Jun-16 23:00N 35°29' E 139°43'3 6.3
2017-Jun-16 22:30N 35°30' E 139°46'5 9.6
2017-Jun-16 22:00N 35°30' E 139°52'510.0
2017-Jun-16 21:30N 35°29' E 139°58'0 0.0
2017-Jun-16 07:40N 35°29' E 139°58'2 9.1
2017-Jun-16 07:25N 35°29' E 139°56'4 9.5
2017-Jun-16 07:00N 35°30' E 139°51'5 9.3
2017-Jun-16 06:30N 35°30' E 139°45'2 4.7
2017-Jun-16 06:00N 35°29' E 139°43'0 0.0
2017-Jun-16 05:30N 35°29' E 139°43'0 0.0
2017-Jun-16 05:00N 35°29' E 139°43'0 0.0
2017-Jun-16 04:30N 35°29' E 139°43'0 0.0
2017-Jun-16 04:00N 35°29' E 139°43'0 0.0
2017-Jun-16 03:30N 35°29' E 139°43'0 0.0
2017-Jun-16 03:00N 35°29' E 139°43'0 0.0
2017-Jun-16 02:30N 35°29' E 139°43'4 7.5
2017-Jun-16 02:00N 35°30' E 139°47'5 9.5
2017-Jun-16 01:30N 35°30' E 139°53'5 9.7
2017-Jun-16 01:01N 35°29' E 139°59'3 0.1
2017-Jun-15 02:31N 35°29' E 139°55'2 9.0
2017-Jun-15 02:17N 35°30' E 139°53'3 9.2
2017-Jun-15 02:00N 35°30' E 139°49'4 8.9
2017-Jun-15 01:30N 35°30' E 139°44'1 2.5
2017-Jun-15 01:00N 35°29' E 139°43'0 0.0
2017-Jun-15 00:30N 35°29' E 139°43'0 0.0
2017-Jun-15 00:00N 35°29' E 139°43'0 0.0
2017-Jun-14 23:30N 35°29' E 139°43'2 3.8
2017-Jun-14 23:00N 35°30' E 139°45'510.4
2017-Jun-14 22:30N 35°30' E 139°51'510.8
2017-Jun-14 22:00N 35°29' E 139°58'2 0.1
2017-Jun-14 07:35N 35°29' E 139°55'1 8.8
2017-Jun-14 07:25N 35°30' E 139°54'4 9.1
2017-Jun-14 07:00N 35°30' E 139°49'4 8.9
2017-Jun-14 06:31N 35°30' E 139°44'1 1.8
2017-Jun-14 06:00N 35°29' E 139°43'0 0.0
2017-Jun-14 05:30N 35°29' E 139°43'0 0.0
2017-Jun-14 05:00N 35°29' E 139°43'0 0.0
2017-Jun-14 04:30N 35°29' E 139°43'0 0.0
2017-Jun-14 04:00N 35°29' E 139°43'0 0.0
2017-Jun-14 03:31N 35°29' E 139°43'0 0.0
2017-Jun-14 03:00N 35°29' E 139°43'2 3.5
2017-Jun-14 02:30N 35°30' E 139°45'4 8.9
2017-Jun-14 02:00N 35°30' E 139°50'5 9.3
2017-Jun-14 01:29N 35°29' E 139°56'  
Track history (hours):
 
Tides and Currents Weather Stations Pressure Air Temp Water Temp Dewpoint Dewpoint Depression Visibility Wind Speed Wind Dir Waves Ship Positions

Daisinmaru No.11

Last reported at 2017-Jun-23 07:01 UTC. Time now 2017-Jun-23 07:03 UTC.
Position N 35°29' E 139°43'.

Length 52 m.

MMSI: 431000667.

Date/timePositionNaut miles runAvg speedWind from/ knotsBaromVisibWave heightAir tempDewpointWater temp
2017-Jun-23 07:01N 35°29' E 139°43'0 0.9
2017-Jun-23 06:31N 35°29' E 139°43'0 0.0
2017-Jun-23 06:01N 35°29' E 139°43'0 0.0
2017-Jun-23 05:31N 35°29' E 139°43'0 0.0
2017-Jun-23 05:01N 35°29' E 139°43'0 0.0
2017-Jun-23 04:31N 35°29' E 139°43'0 0.0
2017-Jun-23 04:00N 35°29' E 139°43'0 0.0
2017-Jun-23 03:31N 35°29' E 139°43'0 0.0
2017-Jun-23 03:01N 35°29' E 139°43'3 5.1
2017-Jun-23 02:31N 35°30' E 139°45'5 9.2
2017-Jun-23 02:01N 35°30' E 139°51'5 9.4
2017-Jun-23 01:30N 35°29' E 139°57'4 0.2
2017-Jun-22 03:57N 35°30' E 139°52'4 8.8
2017-Jun-22 03:30N 35°30' E 139°48'4 8.5
2017-Jun-22 03:01N 35°29' E 139°43'0 0.3
2017-Jun-22 02:30N 35°29' E 139°43'0 0.0
2017-Jun-22 02:00N 35°29' E 139°43'0 0.0
2017-Jun-22 01:30N 35°29' E 139°43'0 0.0
2017-Jun-22 01:00N 35°29' E 139°43'0 0.2
2017-Jun-22 00:30N 35°29' E 139°43'4 8.0
2017-Jun-22 00:00N 35°30' E 139°48'4 8.8
2017-Jun-21 23:30N 35°30' E 139°53'4 0.2
2017-Jun-21 04:50N 35°29' E 139°57'3 8.9
2017-Jun-21 04:29N 35°28' E 139°53'4 9.0
2017-Jun-21 04:00N 35°28' E 139°48'4 8.9
2017-Jun-21 03:31N 35°28' E 139°43'1 2.9
2017-Jun-21 03:00N 35°29' E 139°43'0 0.0
2017-Jun-21 02:31N 35°29' E 139°43'0 0.0
2017-Jun-21 02:00N 35°29' E 139°43'0 0.0
2017-Jun-21 01:30N 35°29' E 139°43'0 0.0
2017-Jun-21 01:01N 35°29' E 139°43'2 4.2
2017-Jun-21 00:30N 35°30' E 139°45'5 9.1
2017-Jun-21 00:01N 35°30' E 139°51'5 9.8
2017-Jun-20 23:31N 35°29' E 139°56'2 0.1
2017-Jun-20 02:48N 35°30' E 139°54'3 9.4
2017-Jun-20 02:30N 35°30' E 139°51'5 9.1
2017-Jun-20 02:00N 35°30' E 139°45'2 4.3
2017-Jun-20 01:30N 35°29' E 139°43'0 0.0
2017-Jun-20 01:00N 35°29' E 139°43'0 0.0
2017-Jun-20 00:30N 35°29' E 139°43'0 0.0
2017-Jun-20 00:00N 35°29' E 139°43'0 0.0
2017-Jun-19 23:30N 35°29' E 139°43'3 6.3
2017-Jun-19 23:00N 35°31' E 139°46'4 8.6
2017-Jun-19 22:30N 35°30' E 139°51'3 0.2
2017-Jun-19 07:24N 35°29' E 139°55'4 9.3
2017-Jun-19 07:00N 35°30' E 139°50'5 9.4
2017-Jun-19 06:31N 35°30' E 139°45'2 3.8
2017-Jun-19 06:01N 35°29' E 139°43'0 0.0
2017-Jun-19 05:31N 35°29' E 139°43'0 0.0
2017-Jun-19 05:01N 35°29' E 139°43'0 0.0
2017-Jun-19 04:31N 35°29' E 139°43'0 0.0
2017-Jun-19 04:01N 35°29' E 139°43'0 0.0
2017-Jun-19 03:30N 35°29' E 139°43'0 0.0
2017-Jun-19 03:00N 35°29' E 139°43'1 2.5
2017-Jun-19 02:31N 35°30' E 139°44'4 8.7
2017-Jun-19 02:01N 35°30' E 139°49'5 9.6
2017-Jun-19 01:28N 35°29' E 139°56'2 0.0
2017-Jun-17 03:00N 35°29' E 139°58'5 8.9
2017-Jun-17 02:28N 35°30' E 139°52'4 8.9
2017-Jun-17 02:00N 35°30' E 139°47'4 8.0
2017-Jun-17 01:30N 35°29' E 139°43'0 0.3
2017-Jun-17 01:00N 35°29' E 139°43'0 0.0
2017-Jun-17 00:30N 35°29' E 139°43'0 0.0
2017-Jun-17 00:00N 35°29' E 139°43'0 0.0
2017-Jun-16 23:30N 35°29' E 139°43'0 0.0
2017-Jun-16 23:00N 35°29' E 139°43'3 6.3
2017-Jun-16 22:30N 35°30' E 139°46'5 9.6
2017-Jun-16 22:00N 35°30' E 139°52'510.0
2017-Jun-16 21:30N 35°29' E 139°58'0 0.0
2017-Jun-16 07:40N 35°29' E 139°58'2 9.1
2017-Jun-16 07:25N 35°29' E 139°56'4 9.5
2017-Jun-16 07:00N 35°30' E 139°51'5 9.3
2017-Jun-16 06:30N 35°30' E 139°45'2 4.7
2017-Jun-16 06:00N 35°29' E 139°43'0 0.0
2017-Jun-16 05:30N 35°29' E 139°43'0 0.0
2017-Jun-16 05:00N 35°29' E 139°43'0 0.0
2017-Jun-16 04:30N 35°29' E 139°43'0 0.0
2017-Jun-16 04:00N 35°29' E 139°43'0 0.0
2017-Jun-16 03:30N 35°29' E 139°43'0 0.0
2017-Jun-16 03:00N 35°29' E 139°43'0 0.0
2017-Jun-16 02:30N 35°29' E 139°43'4 7.5
2017-Jun-16 02:00N 35°30' E 139°47'5 9.5
2017-Jun-16 01:30N 35°30' E 139°53'5 9.7
2017-Jun-16 01:01N 35°29' E 139°59'3 0.1
2017-Jun-15 02:31N 35°29' E 139°55'2 9.0
2017-Jun-15 02:17N 35°30' E 139°53'3 9.2
2017-Jun-15 02:00N 35°30' E 139°49'4 8.9
2017-Jun-15 01:30N 35°30' E 139°44'1 2.5
2017-Jun-15 01:00N 35°29' E 139°43'0 0.0
2017-Jun-15 00:30N 35°29' E 139°43'0 0.0
2017-Jun-15 00:00N 35°29' E 139°43'0 0.0
2017-Jun-14 23:30N 35°29' E 139°43'2 3.8
2017-Jun-14 23:00N 35°30' E 139°45'510.4
2017-Jun-14 22:30N 35°30' E 139°51'510.8
2017-Jun-14 22:00N 35°29' E 139°58'2 0.1
2017-Jun-14 07:35N 35°29' E 139°55'1 8.8
2017-Jun-14 07:25N 35°30' E 139°54'4 9.1
2017-Jun-14 07:00N 35°30' E 139°49'4 8.9
2017-Jun-14 06:31N 35°30' E 139°44'1 1.8
2017-Jun-14 06:00N 35°29' E 139°43'0 0.0
2017-Jun-14 05:30N 35°29' E 139°43'0 0.0
2017-Jun-14 05:00N 35°29' E 139°43'0 0.0
2017-Jun-14 04:30N 35°29' E 139°43'0 0.0
2017-Jun-14 04:00N 35°29' E 139°43'0 0.0
2017-Jun-14 03:31N 35°29' E 139°43'0 0.0
2017-Jun-14 03:00N 35°29' E 139°43'2 3.5
2017-Jun-14 02:30N 35°30' E 139°45'4 8.9
2017-Jun-14 02:00N 35°30' E 139°50'5 9.3
2017-Jun-14 01:29N 35°29' E 139°56'  

Dump ship's entire track history